Time;durP1;ratioP1;P1;durP2;ratioP2;P2;SDS_P1;SDS_P2;PMS_P1;PMS_P2;Temp;Humidity;BMP_temperature;BMP_pressure;BME280_temperature;BME280_humidity;BME280_pressure;Samples;Min_cycle;Max_cycle;Signal;HPM_P1;HPM_P2
2023/03/20 00:03:16;;;;;;;92.83;44.30;;;;;;;;;;10405357;28;20118;-81
2023/03/20 00:08:18;;;;;;;86.87;42.13;;;;;;;;;;10431000;28;20140;-79
2023/03/20 00:13:25;;;;;;;79.13;38.33;;;;;;;;;;10424187;28;20550;-80
2023/03/20 00:18:28;;;;;;;71.57;36.17;;;;;;;;;;10440750;28;20025;-79
2023/03/20 00:23:28;;;;;;;75.87;37.57;;;;;;;;;;10431344;28;20021;-79
2023/03/20 00:28:41;;;;;;;73.73;34.43;;;;;;;;;;10422904;28;20500;-79
2023/03/20 00:33:42;;;;;;;64.87;32.33;;;;;;;;;;10413087;28;20542;-79
2023/03/20 00:38:43;;;;;;;53.73;28.23;;;;;;;;;;10433409;28;20036;-80
2023/03/20 00:43:44;;;;;;;56.10;28.27;;;;;;;;;;10441324;28;20063;-80
2023/03/20 00:48:46;;;;;;;52.87;26.90;;;;;;;;;;10414369;28;20115;-81
2023/03/20 00:53:47;;;;;;;55.57;29.20;;;;;;;;;;10402367;28;20444;-79
2023/03/20 00:58:49;;;;;;;51.90;25.70;;;;;;;;;;10403271;28;20047;-81
2023/03/20 01:03:50;;;;;;;50.43;25.23;;;;;;;;;;10431406;28;20058;-80
2023/03/20 01:08:51;;;;;;;43.73;22.97;;;;;;;;;;10442496;28;20021;-79
2023/03/20 01:13:52;;;;;;;42.17;22.57;;;;;;;;;;10438679;28;20037;-79
2023/03/20 01:18:53;;;;;;;46.50;22.50;;;;;;;;;;10443290;28;20493;-80
2023/03/20 01:23:54;;;;;;;52.40;24.93;;;;;;;;;;10459183;28;20056;-78
2023/03/20 01:28:55;;;;;;;46.63;24.07;;;;;;;;;;10439488;28;20043;-80
2023/03/20 01:33:56;;;;;;;40.83;21.67;;;;;;;;;;10471565;28;20387;-79
2023/03/20 01:38:58;;;;;;;36.23;19.87;;;;;;;;;;10466400;28;20078;-79
2023/03/20 01:44:17;;;;;;;40.07;21.10;;;;;;;;;;10443675;28;20492;-80
2023/03/20 01:49:18;;;;;;;37.17;20.83;;;;;;;;;;10434566;28;20446;-79
2023/03/20 01:54:25;;;;;;;39.77;20.67;;;;;;;;;;10443660;28;20376;-80
2023/03/20 01:59:29;;;;;;;45.47;23.17;;;;;;;;;;10449244;28;20039;-79
2023/03/20 02:04:32;;;;;;;46.70;25.80;;;;;;;;;;10460279;28;20041;-79
2023/03/20 02:09:33;;;;;;;53.90;28.50;;;;;;;;;;10464562;28;20071;-79
2023/03/20 02:14:35;;;;;;;56.63;29.23;;;;;;;;;;10444346;28;20025;-79
2023/03/20 02:19:51;;;;;;;50.47;28.40;;;;;;;;;;10462324;28;20073;-79
2023/03/20 02:24:52;;;;;;;;;;;;;;;;;;10454082;28;20050;-80
2023/03/20 02:29:56;;;;;;;43.60;23.03;;;;;;;;;;10452074;28;19913;-81
2023/03/20 02:35:16;;;;;;;48.70;25.33;;;;;;;;;;10470923;28;20028;-79
2023/03/20 02:40:17;;;;;;;47.00;25.83;;;;;;;;;;10458360;28;20446;-80
2023/03/20 02:45:25;;;;;;;51.40;25.87;;;;;;;;;;10459293;28;20045;-79
2023/03/20 02:50:35;;;;;;;45.80;24.83;;;;;;;;;;10462465;28;20108;-79
2023/03/20 02:55:42;;;;;;;59.10;28.03;;;;;;;;;;10465239;28;20041;-79
2023/03/20 03:00:54;;;;;;;51.97;28.63;;;;;;;;;;10463036;28;20419;-79
2023/03/20 03:06:00;;;;;;;44.13;24.77;;;;;;;;;;10471684;28;20044;-79
2023/03/20 03:11:03;;;;;;;52.08;27.08;;;;;;;;;;10460305;28;20029;-79
2023/03/20 03:16:17;;;;;;;72.63;35.17;;;;;;;;;;10461310;28;20029;-79
2023/03/20 03:21:18;;;;;;;69.27;36.20;;;;;;;;;;10458297;28;20070;-79
2023/03/20 03:26:27;;;;;;;66.03;30.53;;;;;;;;;;10441987;28;20032;-80
2023/03/20 03:31:28;;;;;;;53.90;27.33;;;;;;;;;;10442372;28;20468;-79
2023/03/20 03:36:48;;;;;;;78.33;37.57;;;;;;;;;;10443034;28;20033;-81
2023/03/20 03:41:55;;;;;;;60.40;30.13;;;;;;;;;;10456645;28;20116;-80
2023/03/20 03:46:58;;;;;;;67.77;31.97;;;;;;;;;;10441710;28;20072;-80
2023/03/20 03:52:01;;;;;;;59.00;29.27;;;;;;;;;;10455407;28;20392;-80
2023/03/20 03:57:03;;;;;;;61.27;30.67;;;;;;;;;;10433704;28;20056;-78
2023/03/20 04:02:07;;;;;;;62.27;29.63;;;;;;;;;;10427812;28;20030;-81
2023/03/20 04:07:08;;;;;;;58.87;28.23;;;;;;;;;;10434397;28;20400;-80
2023/03/20 04:12:29;;;;;;;56.43;28.27;;;;;;;;;;10459124;28;20037;-80
2023/03/20 04:17:30;;;;;;;52.20;25.10;;;;;;;;;;10462996;28;20033;-80
2023/03/20 04:22:33;;;;;;;42.93;23.37;;;;;;;;;;10457270;28;20055;-78
2023/03/20 04:27:34;;;;;;;42.47;22.80;;;;;;;;;;10433668;28;20045;-80
2023/03/20 04:32:35;;;;;;;40.80;21.90;;;;;;;;;;10445131;28;20035;-80
2023/03/20 04:37:36;;;;;;;45.33;23.03;;;;;;;;;;10440602;28;20039;-80
2023/03/20 04:42:37;;;;;;;43.03;22.10;;;;;;;;;;10436822;28;20835;-78
2023/03/20 04:47:38;;;;;;;37.00;20.40;;;;;;;;;;10440920;28;20056;-80
2023/03/20 04:52:40;;;;;;;42.13;23.60;;;;;;;;;;10442932;28;20108;-84
2023/03/20 04:57:41;;;;;;;38.40;21.83;;;;;;;;;;10446650;28;20831;-81
2023/03/20 05:02:42;;;;;;;42.20;22.90;;;;;;;;;;10440378;28;20045;-80
2023/03/20 05:07:43;;;;;;;48.40;22.33;;;;;;;;;;10429255;28;20500;-79
2023/03/20 05:12:44;;;;;;;45.47;23.17;;;;;;;;;;10443704;28;20064;-83
2023/03/20 05:17:46;;;;;;;44.30;22.10;;;;;;;;;;10444566;28;20037;-80
2023/03/20 05:22:49;;;;;;;46.63;25.57;;;;;;;;;;10446738;28;20071;-80
2023/03/20 05:27:50;;;;;;;50.07;26.53;;;;;;;;;;10481964;28;20054;-80
2023/03/20 05:32:51;;;;;;;52.53;28.50;;;;;;;;;;10471372;28;20581;-82
2023/03/20 05:37:52;;;;;;;54.70;30.77;;;;;;;;;;10463713;28;20353;-80
2023/03/20 05:42:53;;;;;;;58.73;31.30;;;;;;;;;;10472146;28;20034;-80
2023/03/20 05:47:55;;;;;;;58.07;31.60;;;;;;;;;;10466582;28;20514;-81
2023/03/20 05:52:56;;;;;;;67.50;34.23;;;;;;;;;;10463303;28;20373;-80
2023/03/20 05:57:57;;;;;;;74.10;34.97;;;;;;;;;;10476092;28;20044;-81
2023/03/20 06:02:58;;;;;;;73.97;36.13;;;;;;;;;;10463306;28;20029;-80
2023/03/20 06:07:59;;;;;;;66.90;34.23;;;;;;;;;;10460640;28;20484;-82
2023/03/20 06:13:00;;;;;;;61.93;30.93;;;;;;;;;;10461291;28;20143;-79
2023/03/20 06:18:01;;;;;;;58.83;31.17;;;;;;;;;;10474659;28;20180;-81
2023/03/20 06:23:02;;;;;;;56.67;32.53;;;;;;;;;;10475826;28;20365;-80
2023/03/20 06:28:03;;;;;;;59.13;33.47;;;;;;;;;;10474623;28;20067;-82
2023/03/20 06:33:06;;;;;;;54.63;30.20;;;;;;;;;;10456046;28;20039;-80
2023/03/20 06:38:07;;;;;;;47.70;27.13;;;;;;;;;;10475673;28;20025;-80
2023/03/20 06:43:11;;;;;;;54.50;31.03;;;;;;;;;;10475337;28;20032;-81
2023/03/20 06:48:12;;;;;;;53.63;28.27;;;;;;;;;;10487957;28;20065;-80
2023/03/20 06:53:13;;;;;;;47.93;27.30;;;;;;;;;;10461041;28;20381;-81
2023/03/20 06:58:14;;;;;;;46.07;27.00;;;;;;;;;;10472609;28;20028;-80
2023/03/20 07:03:15;;;;;;;46.67;27.27;;;;;;;;;;10476487;28;20036;-80
2023/03/20 07:08:16;;;;;;;47.77;26.97;;;;;;;;;;10474350;28;20034;-80
2023/03/20 07:13:17;;;;;;;48.83;27.90;;;;;;;;;;10467180;28;20487;-80
2023/03/20 07:18:18;;;;;;;47.00;27.43;;;;;;;;;;10445689;28;20647;-80
2023/03/20 07:23:19;;;;;;;52.47;29.17;;;;;;;;;;10480921;28;20013;-80
2023/03/20 07:28:20;;;;;;;50.50;29.57;;;;;;;;;;10462941;28;20074;-80
2023/03/20 07:33:21;;;;;;;54.57;29.23;;;;;;;;;;10444783;28;20739;-80
2023/03/20 07:38:23;;;;;;;51.50;30.47;;;;;;;;;;10470475;28;20032;-80
2023/03/20 07:43:25;;;;;;;66.80;35.93;;;;;;;;;;10472151;28;20678;-80
2023/03/20 07:48:26;;;;;;;53.13;27.33;;;;;;;;;;10458779;28;20064;-80
2023/03/20 07:53:27;;;;;;;43.53;27.58;;;;;;;;;;10467522;28;20049;-80
2023/03/20 07:58:28;;;;;;;47.47;27.23;;;;;;;;;;10433511;28;20476;-83
2023/03/20 08:03:30;;;;;;;51.77;31.10;;;;;;;;;;10462131;28;20032;-83
2023/03/20 08:08:31;;;;;;;49.57;29.70;;;;;;;;;;10485458;28;20020;-80
2023/03/20 08:13:32;;;;;;;60.33;31.13;;;;;;;;;;10464064;28;20013;-81
2023/03/20 08:18:33;;;;;;;54.27;29.50;;;;;;;;;;10466510;28;20028;-80
2023/03/20 08:23:34;;;;;;;46.50;28.80;;;;;;;;;;10461257;28;20036;-80
2023/03/20 08:28:35;;;;;;;49.10;30.05;;;;;;;;;;10468478;28;20031;-80
2023/03/20 08:33:36;;;;;;;66.55;37.60;;;;;;;;;;10472161;28;20035;-82
2023/03/20 08:38:37;;;;;;;56.22;31.75;;;;;;;;;;10471815;28;20429;-81
2023/03/20 08:43:38;;;;;;;56.17;31.45;;;;;;;;;;10476650;28;20089;-82
2023/03/20 08:48:40;;;;;;;50.53;30.40;;;;;;;;;;10493174;28;20144;-80
2023/03/20 08:53:41;;;;;;;61.53;35.83;;;;;;;;;;10493359;28;20484;-82
2023/03/20 08:58:42;;;;;;;79.18;43.08;;;;;;;;;;10479538;28;20062;-81
2023/03/20 09:03:43;;;;;;;57.17;34.17;;;;;;;;;;10479542;28;20036;-80
2023/03/20 09:08:44;;;;;;;60.15;35.53;;;;;;;;;;10492669;28;20027;-81
2023/03/20 09:13:45;;;;;;;66.18;37.17;;;;;;;;;;10453820;28;20025;-81
2023/03/20 09:18:46;;;;;;;57.03;35.60;;;;;;;;;;10450718;28;20434;-81
2023/03/20 09:23:47;;;;;;;60.25;36.90;;;;;;;;;;10475916;28;20020;-81
2023/03/20 09:28:48;;;;;;;63.58;36.88;;;;;;;;;;10464685;28;20033;-81
2023/03/20 09:33:50;;;;;;;63.65;38.30;;;;;;;;;;10464404;28;20039;-80
2023/03/20 09:38:51;;;;;;;57.85;36.08;;;;;;;;;;10451925;28;20152;-81
2023/03/20 09:44:00;;;;;;;70.75;42.30;;;;;;;;;;10460421;28;20564;-80
2023/03/20 09:49:20;;;;;;;69.35;40.58;;;;;;;;;;10455754;28;20052;-80
2023/03/20 09:54:28;;;;;;;57.97;32.63;;;;;;;;;;10464718;28;20029;-80
2023/03/20 09:59:30;;;;;;;61.58;35.88;;;;;;;;;;10450672;28;20029;-81
2023/03/20 10:04:32;;;;;;;65.68;37.80;;;;;;;;;;10462438;28;20048;-81
2023/03/20 10:09:33;;;;;;;60.58;33.92;;;;;;;;;;10462603;28;20117;-82
2023/03/20 10:14:46;;;;;;;58.72;32.70;;;;;;;;;;10459661;28;20029;-82
2023/03/20 10:19:52;;;;;;;60.90;33.85;;;;;;;;;;10468105;28;20025;-82
2023/03/20 10:25:19;;;;;;;64.47;36.40;;;;;;;;;;10476067;28;20040;-81
2023/03/20 10:30:33;;;;;;;61.88;35.15;;;;;;;;;;10425377;28;20510;-80
2023/03/20 10:35:34;;;;;;;62.38;32.42;;;;;;;;;;10449714;28;20120;-81
2023/03/20 10:40:37;;;;;;;55.75;29.88;;;;;;;;;;10489529;28;20450;-80
2023/03/20 10:45:40;;;;;;;58.33;33.25;;;;;;;;;;10469617;28;20593;-83
2023/03/20 10:50:44;;;;;;;57.45;32.17;;;;;;;;;;10467205;28;20487;-81
2023/03/20 10:55:45;;;;;;;50.67;30.08;;;;;;;;;;10487948;28;20625;-81
2023/03/20 11:00:47;;;;;;;59.13;33.78;;;;;;;;;;10468758;28;20037;-82
2023/03/20 11:05:51;;;;;;;63.88;36.58;;;;;;;;;;10467751;28;20028;-80
2023/03/20 11:10:58;;;;;;;55.30;31.83;;;;;;;;;;10459903;28;20043;-81
2023/03/20 11:16:18;;;;;;;50.45;31.77;;;;;;;;;;10446340;28;20029;-81
2023/03/20 11:21:24;;;;;;;51.05;32.03;;;;;;;;;;10477222;28;20403;-81
2023/03/20 11:26:38;;;;;;;54.13;32.97;;;;;;;;;;10452868;28;20515;-81
2023/03/20 11:31:40;;;;;;;48.47;27.90;;;;;;;;;;10467738;28;20067;-81
2023/03/20 11:36:46;;;;;;;49.40;28.48;;;;;;;;;;10486659;28;20111;-81
2023/03/20 11:41:50;;;;;;;53.58;30.50;;;;;;;;;;10457866;28;20033;-85
2023/03/20 11:46:56;;;;;;;43.83;27.48;;;;;;;;;;10442231;28;20075;-81
2023/03/20 11:52:02;;;;;;;42.20;27.73;;;;;;;;;;10443338;28;20036;-79
2023/03/20 11:57:03;;;;;;;42.78;25.10;;;;;;;;;;10457439;28;20040;-79
2023/03/20 12:02:18;;;;;;;38.78;22.15;;;;;;;;;;10434661;28;20025;-78
2023/03/20 12:07:22;;;;;;;31.70;20.63;;;;;;;;;;10445230;28;20036;-82
2023/03/20 12:12:23;;;;;;;36.88;21.73;;;;;;;;;;10443197;28;20041;-83
2023/03/20 12:17:32;;;;;;;36.65;21.27;;;;;;;;;;10443146;28;20476;-83
2023/03/20 12:22:47;;;;;;;35.53;22.55;;;;;;;;;;10460601;28;20087;-83
2023/03/20 12:27:55;;;;;;;35.55;22.30;;;;;;;;;;10446087;28;20044;-81
2023/03/20 12:33:00;;;;;;;39.53;25.23;;;;;;;;;;10467518;28;20032;-84
2023/03/20 12:38:02;;;;;;;35.00;22.85;;;;;;;;;;10458841;28;20469;-82
2023/03/20 12:43:05;;;;;;;32.30;21.98;;;;;;;;;;10480531;28;20476;-81
2023/03/20 12:48:24;;;;;;;32.95;22.55;;;;;;;;;;10449623;28;20080;-82
2023/03/20 12:53:25;;;;;;;30.13;19.30;;;;;;;;;;10446838;28;20400;-84
2023/03/20 12:58:41;;;;;;;30.80;20.23;;;;;;;;;;10440494;28;20059;-83
2023/03/20 13:03:54;;;;;;;33.15;21.58;;;;;;;;;;10435883;28;20492;-81
2023/03/20 13:09:03;;;;;;;24.98;17.33;;;;;;;;;;10427046;28;20072;-84
2023/03/20 13:14:16;;;;;;;23.23;14.13;;;;;;;;;;10445805;28;20086;-82
2023/03/20 13:19:27;;;;;;;26.17;17.08;;;;;;;;;;10463652;28;20827;-80
2023/03/20 13:24:47;;;;;;;24.38;14.25;;;;;;;;;;10443278;28;20033;-81
2023/03/20 13:29:54;;;;;;;27.33;16.30;;;;;;;;;;10459171;28;20035;-81
2023/03/20 13:35:13;;;;;;;24.17;16.73;;;;;;;;;;10476178;28;20037;-83
2023/03/20 13:40:14;;;;;;;24.77;16.10;;;;;;;;;;10449844;28;20033;-81
2023/03/20 13:45:21;;;;;;;27.75;16.00;;;;;;;;;;10461093;28;20033;-81
2023/03/20 13:50:27;;;;;;;27.92;17.52;;;;;;;;;;10455274;28;20053;-81
2023/03/20 13:55:34;;;;;;;32.72;20.60;;;;;;;;;;10440454;28;20562;-84
2023/03/20 14:00:35;;;;;;;25.80;16.95;;;;;;;;;;10449194;28;20124;-84
2023/03/20 14:05:40;;;;;;;26.50;16.42;;;;;;;;;;10447076;28;20491;-81
2023/03/20 14:10:41;;;;;;;26.57;18.53;;;;;;;;;;10462462;28;20033;-82
2023/03/20 14:15:55;;;;;;;25.77;16.52;;;;;;;;;;10466200;23;20368;-78
2023/03/20 14:20:58;;;;;;;26.23;15.77;;;;;;;;;;10472618;28;21296;-80
2023/03/20 14:25:59;;;;;;;23.25;14.77;;;;;;;;;;10480041;28;20059;-81
2023/03/20 14:31:20;;;;;;;24.30;15.95;;;;;;;;;;10449618;28;20048;-81
2023/03/20 14:36:25;;;;;;;27.33;16.77;;;;;;;;;;10455480;28;20024;-81
2023/03/20 14:41:32;;;;;;;27.67;17.13;;;;;;;;;;10461163;28;20029;-81
2023/03/20 14:46:47;;;;;;;32.13;19.90;;;;;;;;;;10470164;28;20043;-81
2023/03/20 14:51:50;;;;;;;31.77;19.20;;;;;;;;;;10480112;28;20066;-81
2023/03/20 14:56:52;;;;;;;34.50;21.48;;;;;;;;;;10465280;28;20025;-81
2023/03/20 15:01:54;;;;;;;66.07;41.97;;;;;;;;;;10461183;28;20499;-83
2023/03/20 15:07:01;;;;;;;56.15;33.92;;;;;;;;;;10487081;28;20033;-81
2023/03/20 15:12:03;;;;;;;72.85;44.85;;;;;;;;;;10453310;28;20474;-81
2023/03/20 15:17:04;;;;;;;59.65;33.53;;;;;;;;;;10459839;28;20064;-81
2023/03/20 15:22:14;;;;;;;59.80;31.98;;;;;;;;;;10457374;28;20039;-82
2023/03/20 15:27:15;;;;;;;111.32;55.28;;;;;;;;;;10430365;28;20139;-81
2023/03/20 15:32:16;;;;;;;213.65;98.55;;;;;;;;;;10463267;28;20039;-82
2023/03/20 15:37:19;;;;;;;167.35;82.35;;;;;;;;;;10460858;28;20475;-81
2023/03/20 15:42:22;;;;;;;159.07;85.07;;;;;;;;;;10452012;28;20472;-82
2023/03/20 15:47:25;;;;;;;141.52;67.68;;;;;;;;;;10432260;28;20124;-83
2023/03/20 15:52:51;;;;;;;73.88;36.88;;;;;;;;;;10442771;28;20396;-81
2023/03/20 15:57:55;;;;;;;104.85;51.13;;;;;;;;;;10449430;28;20126;-85
2023/03/20 16:02:56;;;;;;;108.60;56.67;;;;;;;;;;10443011;28;20036;-83
2023/03/20 16:08:10;;;;;;;99.80;50.67;;;;;;;;;;10441702;28;20098;-82
2023/03/20 16:13:13;;;;;;;86.00;47.30;;;;;;;;;;10437245;28;20427;-81
2023/03/20 16:18:15;;;;;;;86.97;47.95;;;;;;;;;;10435394;28;20057;-82
2023/03/20 16:23:21;;;;;;;95.78;51.55;;;;;;;;;;10438219;28;20032;-81
2023/03/20 16:28:24;;;;;;;115.55;58.38;;;;;;;;;;10435505;28;20070;-81
2023/03/20 16:33:25;;;;;;;196.00;100.05;;;;;;;;;;10440250;28;20041;-81
2023/03/20 16:38:28;;;;;;;136.77;73.03;;;;;;;;;;10440607;28;20033;-82
2023/03/20 16:43:32;;;;;;;186.43;97.30;;;;;;;;;;10436672;28;20033;-84
2023/03/20 16:48:36;;;;;;;167.82;99.05;;;;;;;;;;10425339;28;20144;-82
2023/03/20 16:53:41;;;;;;;189.27;112.22;;;;;;;;;;10432249;28;20048;-79
2023/03/20 16:58:44;;;;;;;181.10;109.70;;;;;;;;;;10412367;28;20033;-82
2023/03/20 17:03:47;;;;;;;176.80;101.93;;;;;;;;;;10443121;28;20037;-81
2023/03/20 17:08:50;;;;;;;219.10;114.73;;;;;;;;;;10442747;28;20059;-83
2023/03/20 17:13:51;;;;;;;178.33;96.63;;;;;;;;;;10429101;28;20072;-82
2023/03/20 17:19:04;;;;;;;238.27;124.53;;;;;;;;;;10439126;28;20043;-82
2023/03/20 17:24:05;;;;;;;240.93;138.10;;;;;;;;;;10449701;28;20033;-82
2023/03/20 17:29:07;;;;;;;361.23;204.07;;;;;;;;;;10437660;28;20597;-83
2023/03/20 17:34:09;;;;;;;290.50;162.70;;;;;;;;;;10438988;28;20033;-81
2023/03/20 17:39:16;;;;;;;217.27;124.80;;;;;;;;;;10449050;28;20111;-83
2023/03/20 17:44:17;;;;;;;187.70;111.23;;;;;;;;;;10467766;28;20464;-82
2023/03/20 17:49:21;;;;;;;191.47;108.47;;;;;;;;;;10473826;28;20032;-81
2023/03/20 17:54:22;;;;;;;240.43;140.93;;;;;;;;;;10451983;28;20021;-83
2023/03/20 17:59:27;;;;;;;245.70;137.57;;;;;;;;;;10470697;23;20107;-82
2023/03/20 18:04:28;;;;;;;297.03;173.13;;;;;;;;;;10455059;28;20651;-82
2023/03/20 18:09:29;;;;;;;313.60;188.43;;;;;;;;;;10438773;28;20031;-82
2023/03/20 18:14:30;;;;;;;285.57;169.23;;;;;;;;;;10409711;28;20033;-81
2023/03/20 18:19:31;;;;;;;314.40;184.63;;;;;;;;;;10427030;28;20029;-83
2023/03/20 18:24:33;;;;;;;445.90;270.73;;;;;;;;;;10429161;28;20045;-80
2023/03/20 18:29:34;;;;;;;411.17;256.80;;;;;;;;;;10420550;28;20675;-82
2023/03/20 18:34:35;;;;;;;365.83;224.80;;;;;;;;;;10412202;28;20562;-81
2023/03/20 18:39:36;;;;;;;310.23;188.93;;;;;;;;;;10438509;28;20033;-81
2023/03/20 18:44:37;;;;;;;240.70;134.83;;;;;;;;;;10423840;28;20049;-83
2023/03/20 18:49:38;;;;;;;170.30;100.80;;;;;;;;;;10424173;28;20026;-81
2023/03/20 18:54:39;;;;;;;146.50;87.17;;;;;;;;;;10408083;28;20400;-81
2023/03/20 18:59:40;;;;;;;148.90;86.13;;;;;;;;;;10418087;28;20088;-82
2023/03/20 19:04:41;;;;;;;165.38;93.85;;;;;;;;;;10417701;28;20033;-82
2023/03/20 19:09:42;;;;;;;173.40;97.30;;;;;;;;;;10417866;28;20030;-82
2023/03/20 19:14:43;;;;;;;204.33;107.97;;;;;;;;;;10415086;28;20434;-80
2023/03/20 19:19:44;;;;;;;203.43;109.27;;;;;;;;;;10425731;28;20042;-81
2023/03/20 19:24:45;;;;;;;184.03;102.20;;;;;;;;;;10417690;28;20045;-81
2023/03/20 19:29:47;;;;;;;191.37;108.57;;;;;;;;;;10423283;28;20034;-83
2023/03/20 19:34:48;;;;;;;196.97;111.57;;;;;;;;;;10417450;28;20057;-83
2023/03/20 19:39:49;;;;;;;197.57;110.37;;;;;;;;;;10425252;28;20055;-80
2023/03/20 19:44:50;;;;;;;199.63;111.70;;;;;;;;;;10423372;28;20044;-84
2023/03/20 19:49:51;;;;;;;162.82;93.20;;;;;;;;;;10416272;28;20483;-82
2023/03/20 19:54:52;;;;;;;144.17;85.27;;;;;;;;;;10417660;28;20028;-83
2023/03/20 19:59:53;;;;;;;170.87;99.93;;;;;;;;;;10441424;28;20062;-81
2023/03/20 20:04:54;;;;;;;198.90;112.33;;;;;;;;;;10415066;28;20045;-81
2023/03/20 20:09:55;;;;;;;179.63;99.63;;;;;;;;;;10430737;28;20025;-82
2023/03/20 20:14:57;;;;;;;167.77;89.67;;;;;;;;;;10409737;28;20043;-81
2023/03/20 20:19:58;;;;;;;196.47;104.03;;;;;;;;;;10409349;28;20102;-82
2023/03/20 20:24:59;;;;;;;220.83;119.37;;;;;;;;;;10410738;28;20037;-84
2023/03/20 20:30:00;;;;;;;258.07;131.10;;;;;;;;;;10405460;28;20033;-85
2023/03/20 20:35:03;;;;;;;189.00;104.22;;;;;;;;;;10437071;23;20073;-82
2023/03/20 20:40:04;;;;;;;172.27;93.30;;;;;;;;;;10423861;28;20033;-83
2023/03/20 20:45:06;;;;;;;171.20;91.00;;;;;;;;;;10415400;28;20034;-84
2023/03/20 20:50:08;;;;;;;246.57;128.87;;;;;;;;;;10428852;28;20507;-82
2023/03/20 20:55:10;;;;;;;157.70;86.93;;;;;;;;;;10433499;28;20508;-83
2023/03/20 21:00:12;;;;;;;147.37;84.10;;;;;;;;;;10429631;28;20119;-83
2023/03/20 21:05:15;;;;;;;150.70;85.00;;;;;;;;;;10430876;28;20035;-85
2023/03/20 21:10:17;;;;;;;167.73;91.37;;;;;;;;;;10424183;28;20036;-83
2023/03/20 21:15:18;;;;;;;107.53;59.23;;;;;;;;;;10418720;28;20032;-83
2023/03/20 21:20:19;;;;;;;121.00;64.90;;;;;;;;;;10469515;23;20093;-83
2023/03/20 21:25:20;;;;;;;104.30;52.20;;;;;;;;;;10451339;28;20045;-83
2023/03/20 21:30:21;;;;;;;102.87;56.23;;;;;;;;;;10454409;28;20025;-84
2023/03/20 21:35:25;;;;;;;106.77;57.47;;;;;;;;;;10458301;28;20021;-84
2023/03/20 21:40:26;;;;;;;128.87;70.03;;;;;;;;;;10458760;28;20025;-84
2023/03/20 21:45:27;;;;;;;162.80;91.40;;;;;;;;;;10449143;28;20049;-84
2023/03/20 21:50:28;;;;;;;153.87;76.43;;;;;;;;;;10448343;28;20039;-83
2023/03/20 21:55:29;;;;;;;129.77;66.60;;;;;;;;;;10468692;28;20726;-83
2023/03/20 22:00:30;;;;;;;148.10;70.67;;;;;;;;;;10480235;28;20028;-83
2023/03/20 22:05:31;;;;;;;126.00;56.53;;;;;;;;;;10462620;28;20036;-82
2023/03/20 22:10:32;;;;;;;136.90;67.83;;;;;;;;;;10457931;28;20120;-83
2023/03/20 22:15:33;;;;;;;163.87;70.50;;;;;;;;;;10467972;28;20033;-81
2023/03/20 22:20:35;;;;;;;152.47;72.23;;;;;;;;;;10472626;28;20060;-82
2023/03/20 22:25:36;;;;;;;195.27;83.73;;;;;;;;;;10458475;28;20036;-84
2023/03/20 22:30:37;;;;;;;193.90;84.50;;;;;;;;;;10457645;28;20404;-83
2023/03/20 22:35:41;;;;;;;226.20;93.20;;;;;;;;;;10455572;28;20033;-81
2023/03/20 22:40:43;;;;;;;158.03;61.63;;;;;;;;;;10444443;28;20033;-83
2023/03/20 22:45:45;;;;;;;171.33;71.90;;;;;;;;;;10477887;28;20071;-82
2023/03/20 22:50:47;;;;;;;215.93;90.40;;;;;;;;;;10444663;28;20075;-84
2023/03/20 22:55:51;;;;;;;185.83;80.70;;;;;;;;;;10459378;28;20083;-83
2023/03/20 23:00:53;;;;;;;236.00;101.13;;;;;;;;;;10470686;28;20029;-84
2023/03/20 23:05:56;;;;;;;251.90;114.63;;;;;;;;;;10440776;28;20098;-83
2023/03/20 23:10:57;;;;;;;189.33;78.47;;;;;;;;;;10469180;28;20036;-82
2023/03/20 23:15:58;;;;;;;223.57;90.00;;;;;;;;;;10449598;28;20776;-83
2023/03/20 23:21:00;;;;;;;180.80;70.80;;;;;;;;;;10468425;28;20045;-84
2023/03/20 23:26:05;;;;;;;128.93;52.33;;;;;;;;;;10454089;28;20041;-83
2023/03/20 23:31:09;;;;;;;152.90;60.10;;;;;;;;;;10459347;28;20131;-83
2023/03/20 23:36:10;;;;;;;178.60;67.93;;;;;;;;;;10458546;28;20025;-83
2023/03/20 23:41:12;;;;;;;145.03;56.10;;;;;;;;;;10454998;28;20040;-83
2023/03/20 23:46:13;;;;;;;143.00;60.30;;;;;;;;;;10463276;28;20064;-84
2023/03/20 23:51:14;;;;;;;152.80;59.10;;;;;;;;;;10442830;28;20127;-84
2023/03/20 23:56:15;;;;;;;144.80;57.13;;;;;;;;;;10452655;28;20395;-83
